Low temp

Not for real navigation. The accuracy of this data is not assured See disclaimer for more information



ICAO NAME COUNTRY WIND Kt GUST Kt VIS m TEMP/DEW C BARO METAR
NZSP Amundsen-Scott South Pole Stat Antarctica 12 0 9999 -57/0 28.08 NZSP 281150Z 08012KT 3200 IC BR CAVOK M57/ A2808 RMK CLN AIR 07011KT ALL WNDS GRID
FDMV 4 0 9999 -38/-51 30.53 FDMV 281200Z AUTO 06004KT //// // ////// M38/M51 Q1034
K46U 4 13 9999 -26/0 30.30 K46U 281200Z AUTO 08004G13KT 10SM CAVOK M26/ A3030 RMK A01
SCRM 13 0 3000 -18/-21 29.09 SCRM 281200Z 08013KT 3000 SN SCT002 OVC010 M18/M21 Q0985
NZCM Williams Field Antarctica 7 0 8000 -14/-14 28.87 NZCM 281155Z 11007KT 8000 -SN OVC055 M14/M14 A2887 RMK SNB0845 SLP782

Show more